Impacts TAF Board
For situational awareness. Not to be used for flight planning purposes.
IDs:

KSTL - St Louis/Lambert Int, MO, US

Issued at 0539 UTC 23 Feb 2019
Updated at 0627 UTC 23 Feb 2019
Potential Impact None Slight Moderate High
Time0551Z 23/07Z 23/08Z 23/09Z 23/10Z 23/11Z 23/12Z 23/13Z 23/14Z 23/15Z 23/16Z 23/17Z 23/18Z 23/19Z>>
Type OBS PRVL PRVL PRVL PRVL PRVL PRVL PRVL PRVL PRVL PRVL PRVL PRVL PRVL
VIS 9 >6 >6 >6 >6 3 3 3 3 3 3 3 3 6
CIG 13 13 13 13 13 5 5 5 5 5 5 5 5 6
Cover OVC OVC OVC OVC OVC OVC OVC OVC OVC OVC OVC OVC OVC OVC
FltCat MVFR MVFR MVFR MVFR MVFR IFR IFR IFR IFR IFR IFR IFR IFR IFR
WX -- -- -- -- -- -SHRA BR -SHRA BR -SHRA BR -SHRA BR -SHRA BR -SHRA BR -SHRA BR -SHRA BR -SHRA VCTS
WDir 120 110 110 110 110 110 110 110 110 110 110 110 110 150
WSpd 10 9 9 9 9 8 8 8 8 8 8 8 8 8
WGst -- -- -- -- -- -- -- -- -- -- -- -- -- --
Raw TAF
KSTL 230539Z 2306/2412 11009KT P6SM OVC013
  FM231100 11008KT 3SM -SHRA BR OVC005
  FM231900 15008KT 6SM -SHRA VCTS OVC006CB
  FM232200 16011G22KT P6SM BKN020
  FM240000 20011G23KT P6SM SCT035
  FM240400 23015G24KT P6SM SCT230
  FM240600 25022G34KT P6SM BKN030


Raw METAR
KSTL 230551Z 12010KT 9SM OVC013 05/01 A3008 RMK AO2 SLP192 60000 T00500011 10050 20044 400611006 56030
KSTL 230451Z 11008KT 10SM BKN013 OVC021 05/01 A3010 RMK AO2 SLP198 T00500006
KSTL 230404Z 10010KT 10SM BKN014 OVC026 05/00 A3012 RMK AO2 T00500000
KSTL 230351Z 10010KT 10SM OVC015 05/00 A3014 RMK AO2 SLP211 T00500000

METAR Board
Radar Display
Forecast Discussion
For situational awareness. Not to be used for flight planning purposes.